sensor_id;sensor_type;location;lat;lon;timestamp;pressure;altitude;pressure_sealevel;temperature;humidity
20145;BME280;10233;50.814;6.590;2023-05-29T00:00:24;100632.53;;;15.95;100.00
20145;BME280;10233;50.814;6.590;2023-05-29T00:01:25;100627.75;;;15.97;100.00
20145;BME280;10233;50.814;6.590;2023-05-29T00:02:26;100633.13;;;15.97;100.00
20145;BME280;10233;50.814;6.590;2023-05-29T00:03:26;100633.56;;;15.94;100.00
20145;BME280;10233;50.814;6.590;2023-05-29T00:04:27;100641.38;;;15.96;100.00
20145;BME280;10233;50.814;6.590;2023-05-29T00:05:28;100645.03;;;16.01;100.00
20145;BME280;10233;50.814;6.590;2023-05-29T00:06:28;100640.59;;;15.95;100.00
20145;BME280;10233;50.814;6.590;2023-05-29T00:07:29;100644.28;;;15.94;100.00
20145;BME280;10233;50.814;6.590;2023-05-29T00:08:30;100644.41;;;15.88;100.00
20145;BME280;10233;50.814;6.590;2023-05-29T00:09:30;100641.81;;;15.81;100.00
20145;BME280;10233;50.814;6.590;2023-05-29T00:10:31;100652.31;;;15.83;100.00
20145;BME280;10233;50.814;6.590;2023-05-29T00:11:31;100653.94;;;15.84;100.00
20145;BME280;10233;50.814;6.590;2023-05-29T00:12:32;100651.91;;;15.79;100.00
20145;BME280;10233;50.814;6.590;2023-05-29T00:13:32;100657.28;;;15.79;100.00
20145;BME280;10233;50.814;6.590;2023-05-29T00:14:33;100657.28;;;15.79;100.00
20145;BME280;10233;50.814;6.590;2023-05-29T00:15:33;100658.78;;;15.75;100.00
20145;BME280;10233;50.814;6.590;2023-05-29T00:16:34;100661.44;;;15.75;100.00
20145;BME280;10233;50.814;6.590;2023-05-29T00:17:36;100662.72;;;15.73;100.00
20145;BME280;10233;50.814;6.590;2023-05-29T00:18:36;100659.09;;;15.67;100.00
20145;BME280;10233;50.814;6.590;2023-05-29T00:19:45;100656.41;;;15.67;100.00
20145;BME280;10233;50.814;6.590;2023-05-29T00:20:45;100659.31;;;15.66;100.00
20145;BME280;10233;50.814;6.590;2023-05-29T00:21:46;100654.78;;;15.66;100.00
20145;BME280;10233;50.814;6.590;2023-05-29T00:22:49;100654.63;;;15.61;100.00
20145;BME280;10233;50.814;6.590;2023-05-29T00:23:50;100659.53;;;15.64;100.00
20145;BME280;10233;50.814;6.590;2023-05-29T00:24:50;100654.03;;;15.77;100.00
20145;BME280;10233;50.814;6.590;2023-05-29T00:25:51;100656.56;;;15.72;100.00
20145;BME280;10233;50.814;6.590;2023-05-29T00:26:51;100650.59;;;15.70;100.00
20145;BME280;10233;50.814;6.590;2023-05-29T00:27:52;100653.25;;;15.70;100.00
20145;BME280;10233;50.814;6.590;2023-05-29T00:28:53;100653.25;;;15.70;100.00
20145;BME280;10233;50.814;6.590;2023-05-29T00:29:53;100656.63;;;15.66;100.00
20145;BME280;10233;50.814;6.590;2023-05-29T00:30:53;100656.84;;;15.64;100.00
20145;BME280;10233;50.814;6.590;2023-05-29T00:31:54;100657.47;;;15.66;100.00
20145;BME280;10233;50.814;6.590;2023-05-29T00:32:56;100659.47;;;15.71;100.00
20145;BME280;10233;50.814;6.590;2023-05-29T00:33:56;100660.28;;;15.71;100.00
20145;BME280;10233;50.814;6.590;2023-05-29T00:34:57;100655.81;;;15.65;100.00
20145;BME280;10233;50.814;6.590;2023-05-29T00:35:57;100650.44;;;15.65;100.00
20145;BME280;10233;50.814;6.590;2023-05-29T00:36:58;100659.53;;;15.64;100.00
20145;BME280;10233;50.814;6.590;2023-05-29T00:37:59;100659.31;;;15.66;100.00
20145;BME280;10233;50.814;6.590;2023-05-29T00:38:59;100657.91;;;15.63;100.00
20145;BME280;10233;50.814;6.590;2023-05-29T00:40:01;100662.69;;;15.61;100.00
20145;BME280;10233;50.814;6.590;2023-05-29T00:41:01;100652.97;;;15.60;100.00
20145;BME280;10233;50.814;6.590;2023-05-29T00:42:03;100662.28;;;15.58;100.00
20145;BME280;10233;50.814;6.590;2023-05-29T00:43:03;100652.97;;;15.60;100.00
20145;BME280;10233;50.814;6.590;2023-05-29T00:44:04;100652.38;;;15.58;100.00
20145;BME280;10233;50.814;6.590;2023-05-29T00:45:04;100657.75;;;15.58;100.00
20145;BME280;10233;50.814;6.590;2023-05-29T00:46:05;100658.81;;;15.57;100.00
20145;BME280;10233;50.814;6.590;2023-05-29T00:47:06;100660.06;;;15.55;100.00
20145;BME280;10233;50.814;6.590;2023-05-29T00:48:07;100657.59;;;15.53;100.00
20145;BME280;10233;50.814;6.590;2023-05-29T00:49:08;100654.34;;;15.51;100.00
20145;BME280;10233;50.814;6.590;2023-05-29T00:50:10;100658.03;;;15.50;100.00
20145;BME280;10233;50.814;6.590;2023-05-29T00:51:11;100656.34;;;15.56;100.00
20145;BME280;10233;50.814;6.590;2023-05-29T00:52:12;100646.31;;;15.51;100.00
20145;BME280;10233;50.814;6.590;2023-05-29T00:53:13;100655.97;;;15.52;100.00
20145;BME280;10233;50.814;6.590;2023-05-29T00:54:20;100651.66;;;15.51;100.00
20145;BME280;10233;50.814;6.590;2023-05-29T00:55:22;100656.25;;;15.44;100.00
20145;BME280;10233;50.814;6.590;2023-05-29T00:56:22;100654.25;;;15.40;100.00
20145;BME280;10233;50.814;6.590;2023-05-29T00:57:23;100651.72;;;15.45;100.00
20145;BME280;10233;50.814;6.590;2023-05-29T00:58:24;100657.75;;;15.40;100.00
20145;BME280;10233;50.814;6.590;2023-05-29T00:59:30;100653.28;;;15.34;100.00
20145;BME280;10233;50.814;6.590;2023-05-29T01:00:31;100653.09;;;15.29;100.00
20145;BME280;10233;50.814;6.590;2023-05-29T01:01:33;100654.41;;;15.20;100.00
20145;BME280;10233;50.814;6.590;2023-05-29T01:02:36;100655.47;;;15.19;100.00
20145;BME280;10233;50.814;6.590;2023-05-29T01:03:37;100657.41;;;15.12;100.00
20145;BME280;10233;50.814;6.590;2023-05-29T01:04:38;100654.47;;;14.96;100.00
20145;BME280;10233;50.814;6.590;2023-05-29T01:05:38;100654.25;;;14.97;100.00
20145;BME280;10233;50.814;6.590;2023-05-29T01:06:39;100653.47;;;14.90;100.00
20145;BME280;10233;50.814;6.590;2023-05-29T01:07:41;100655.31;;;14.90;100.00
20145;BME280;10233;50.814;6.590;2023-05-29T01:08:42;100657.47;;;14.81;100.00
20145;BME280;10233;50.814;6.590;2023-05-29T01:09:42;100654.19;;;14.79;100.00
20145;BME280;10233;50.814;6.590;2023-05-29T01:10:43;100658.34;;;14.75;100.00
20145;BME280;10233;50.814;6.590;2023-05-29T01:13:22;100652.88;;;14.64;100.00
20145;BME280;10233;50.814;6.590;2023-05-29T01:14:28;100654.38;;;14.53;100.00
20145;BME280;10233;50.814;6.590;2023-05-29T01:15:41;100661.88;;;14.45;100.00
20145;BME280;10233;50.814;6.590;2023-05-29T01:16:54;100659.41;;;14.43;100.00
20145;BME280;10233;50.814;6.590;2023-05-29T01:20:57;100661.91;;;14.38;100.00
20145;BME280;10233;50.814;6.590;2023-05-29T01:26:32;100664.84;;;14.30;100.00
20145;BME280;10233;50.814;6.590;2023-05-29T01:27:37;100665.25;;;14.34;100.00
20145;BME280;10233;50.814;6.590;2023-05-29T01:28:46;100665.06;;;14.29;100.00
20145;BME280;10233;50.814;6.590;2023-05-29T01:29:48;100667.94;;;14.27;100.00
20145;BME280;10233;50.814;6.590;2023-05-29T01:30:51;100668.16;;;14.26;100.00
20145;BME280;10233;50.814;6.590;2023-05-29T01:31:52;100668.16;;;14.26;100.00
20145;BME280;10233;50.814;6.590;2023-05-29T01:32:54;100666.53;;;14.25;100.00
20145;BME280;10233;50.814;6.590;2023-05-29T01:33:57;100667.56;;;14.24;100.00
20145;BME280;10233;50.814;6.590;2023-05-29T01:34:58;100673.13;;;14.22;100.00
20145;BME280;10233;50.814;6.590;2023-05-29T01:35:59;100669.41;;;14.23;100.00
20145;BME280;10233;50.814;6.590;2023-05-29T01:37:00;100674.38;;;14.13;100.00
20145;BME280;10233;50.814;6.590;2023-05-29T01:38:00;100678.28;;;14.11;100.00
20145;BME280;10233;50.814;6.590;2023-05-29T01:39:01;100674.00;;;14.10;100.00
20145;BME280;10233;50.814;6.590;2023-05-29T01:40:02;100683.47;;;14.06;100.00
20145;BME280;10233;50.814;6.590;2023-05-29T01:41:04;100685.75;;;14.02;100.00
20145;BME280;10233;50.814;6.590;2023-05-29T01:42:07;100676.91;;;14.02;100.00
20145;BME280;10233;50.814;6.590;2023-05-29T01:43:09;100683.28;;;14.01;100.00
20145;BME280;10233;50.814;6.590;2023-05-29T01:44:11;100672.03;;;13.92;100.00
20145;BME280;10233;50.814;6.590;2023-05-29T01:45:13;100683.13;;;13.89;100.00
20145;BME280;10233;50.814;6.590;2023-05-29T01:46:14;100677.38;;;13.92;100.00
20145;BME280;10233;50.814;6.590;2023-05-29T01:47:15;100681.88;;;13.92;100.00
20145;BME280;10233;50.814;6.590;2023-05-29T01:48:17;100676.53;;;13.92;100.00
20145;BME280;10233;50.814;6.590;2023-05-29T01:49:17;100680.25;;;13.91;100.00
20145;BME280;10233;50.814;6.590;2023-05-29T01:50:19;100690.13;;;13.90;100.00
20145;BME280;10233;50.814;6.590;2023-05-29T01:51:21;100685.00;;;13.89;100.00
20145;BME280;10233;50.814;6.590;2023-05-29T01:52:21;100686.44;;;13.91;100.00
20145;BME280;10233;50.814;6.590;2023-05-29T01:53:22;100683.50;;;13.99;100.00
20145;BME280;10233;50.814;6.590;2023-05-29T01:54:23;100688.25;;;13.97;100.00
20145;BME280;10233;50.814;6.590;2023-05-29T01:55:23;100690.91;;;13.97;100.00
20145;BME280;10233;50.814;6.590;2023-05-29T01:56:24;100692.34;;;14.00;100.00
20145;BME280;10233;50.814;6.590;2023-05-29T01:57:27;100686.63;;;13.96;100.00
20145;BME280;10233;50.814;6.590;2023-05-29T01:58:29;100689.28;;;13.96;100.00
20145;BME280;10233;50.814;6.590;2023-05-29T01:59:31;100681.66;;;14.00;100.00
20145;BME280;10233;50.814;6.590;2023-05-29T02:00:32;100683.94;;;13.96;100.00
20145;BME280;10233;50.814;6.590;2023-05-29T02:01:33;100689.28;;;13.96;100.00
20145;BME280;10233;50.814;6.590;2023-05-29T02:02:37;100693.19;;;14.00;100.00
20145;BME280;10233;50.814;6.590;2023-05-29T02:03:37;100688.63;;;14.01;100.00
20145;BME280;10233;50.814;6.590;2023-05-29T02:04:38;100695.03;;;13.93;100.00
20145;BME280;10233;50.814;6.590;2023-05-29T02:05:38;100689.69;;;13.93;100.00
20145;BME280;10233;50.814;6.590;2023-05-29T02:06:39;100692.75;;;13.97;100.00
20145;BME280;10233;50.814;6.590;2023-05-29T02:07:39;100690.53;;;13.94;100.00
20145;BME280;10233;50.814;6.590;2023-05-29T02:08:40;100687.84;;;13.94;100.00
20145;BME280;10233;50.814;6.590;2023-05-29T02:09:41;100690.31;;;13.95;100.00
20145;BME280;10233;50.814;6.590;2023-05-29T02:10:42;100681.44;;;14.01;100.00
20145;BME280;10233;50.814;6.590;2023-05-29T02:11:42;100689.69;;;13.93;100.00
20145;BME280;10233;50.814;6.590;2023-05-29T02:12:46;100695.03;;;13.93;100.00
20145;BME280;10233;50.814;6.590;2023-05-29T02:13:46;100693.19;;;13.94;100.00
20145;BME280;10233;50.814;6.590;2023-05-29T02:14:46;100694.25;;;13.93;100.00
20145;BME280;10233;50.814;6.590;2023-05-29T02:15:47;100701.25;;;13.87;100.00
20145;BME280;10233;50.814;6.590;2023-05-29T02:16:48;100699.34;;;13.94;100.00
20145;BME280;10233;50.814;6.590;2023-05-29T02:17:49;100706.19;;;13.90;100.00
20145;BME280;10233;50.814;6.590;2023-05-29T02:18:51;100699.16;;;13.89;100.00
20145;BME280;10233;50.814;6.590;2023-05-29T02:19:52;100707.63;;;13.86;100.00
20145;BME280;10233;50.814;6.590;2023-05-29T02:20:53;100708.03;;;13.90;100.00
20145;BME280;10233;50.814;6.590;2023-05-29T02:21:56;100712.78;;;13.81;100.00
20145;BME280;10233;50.814;6.590;2023-05-29T02:22:56;100709.94;;;13.76;100.00
20145;BME280;10233;50.814;6.590;2023-05-29T02:23:56;100708.69;;;13.79;100.00
20145;BME280;10233;50.814;6.590;2023-05-29T02:24:57;100707.63;;;13.86;100.00
20145;BME280;10233;50.814;6.590;2023-05-29T02:25:57;100705.81;;;13.80;100.00
20145;BME280;10233;50.814;6.590;2023-05-29T02:26:58;100709.91;;;13.83;100.00
20145;BME280;10233;50.814;6.590;2023-05-29T02:27:58;100709.06;;;13.82;100.00
20145;BME280;10233;50.814;6.590;2023-05-29T02:28:58;100715.03;;;13.84;100.00
20145;BME280;10233;50.814;6.590;2023-05-29T02:30:00;100713.81;;;13.80;100.00
20145;BME280;10233;50.814;6.590;2023-05-29T02:31:02;100718.94;;;13.82;100.00
20145;BME280;10233;50.814;6.590;2023-05-29T02:32:03;100711.56;;;13.77;100.00
20145;BME280;10233;50.814;6.590;2023-05-29T02:33:07;100719.41;;;13.72;100.00
20145;BME280;10233;50.814;6.590;2023-05-29T02:34:08;100717.13;;;13.69;100.00
20145;BME280;10233;50.814;6.590;2023-05-29T02:35:09;100711.19;;;13.67;100.00
20145;BME280;10233;50.814;6.590;2023-05-29T02:36:10;100713.03;;;13.67;100.00
20145;BME280;10233;50.814;6.590;2023-05-29T02:37:11;100718.56;;;13.65;100.00
20145;BME280;10233;50.814;6.590;2023-05-29T02:38:12;100711.38;;;13.66;100.00
20145;BME280;10233;50.814;6.590;2023-05-29T02:39:15;100720.25;;;13.60;100.00
20145;BME280;10233;50.814;6.590;2023-05-29T02:40:15;100720.47;;;13.58;100.00
20145;BME280;10233;50.814;6.590;2023-05-29T02:41:16;100724.97;;;13.58;100.00
20145;BME280;10233;50.814;6.590;2023-05-29T02:42:17;100724.16;;;13.57;100.00
20145;BME280;10233;50.814;6.590;2023-05-29T02:43:18;100730.16;;;13.46;100.00
20145;BME280;10233;50.814;6.590;2023-05-29T02:44:18;100723.16;;;13.45;100.00
20145;BME280;10233;50.814;6.590;2023-05-29T02:45:18;100726.84;;;13.51;100.00
20145;BME280;10233;50.814;6.590;2023-05-29T02:46:19;100732.19;;;13.57;100.00
20145;BME280;10233;50.814;6.590;2023-05-29T02:47:23;100723.16;;;13.45;100.00
20145;BME280;10233;50.814;6.590;2023-05-29T02:48:23;100722.34;;;13.45;100.00
20145;BME280;10233;50.814;6.590;2023-05-29T02:49:26;100722.56;;;13.37;100.00
20145;BME280;10233;50.814;6.590;2023-05-29T02:50:27;100729.53;;;13.31;100.00
20145;BME280;10233;50.814;6.590;2023-05-29T02:51:28;100731.19;;;13.26;100.00
20145;BME280;10233;50.814;6.590;2023-05-29T02:52:28;100729.75;;;13.30;100.00
20145;BME280;10233;50.814;6.590;2023-05-29T02:53:31;100731.41;;;13.37;100.00
20145;BME280;10233;50.814;6.590;2023-05-29T02:54:32;100725.03;;;13.32;100.00
20145;BME280;10233;50.814;6.590;2023-05-29T02:55:32;100727.69;;;13.32;100.00
20145;BME280;10233;50.814;6.590;2023-05-29T02:56:35;100728.28;;;13.40;100.00
20145;BME280;10233;50.814;6.590;2023-05-29T02:57:36;100723.97;;;13.39;100.00
20145;BME280;10233;50.814;6.590;2023-05-29T02:58:37;100733.22;;;13.37;100.00
20145;BME280;10233;50.814;6.590;2023-05-29T02:59:37;100725.63;;;13.40;100.00
20145;BME280;10233;50.814;6.590;2023-05-29T03:00:38;100726.66;;;13.26;100.00
20145;BME280;10233;50.814;6.590;2023-05-29T03:01:38;100724.81;;;13.27;100.00
20145;BME280;10233;50.814;6.590;2023-05-29T03:02:39;100733.03;;;13.25;100.00
20145;BME280;10233;50.814;6.590;2023-05-29T03:03:40;100730.59;;;13.17;100.00
20145;BME280;10233;50.814;6.590;2023-05-29T03:04:40;100732.03;;;13.20;100.00
20145;BME280;10233;50.814;6.590;2023-05-29T03:05:41;100728.31;;;13.08;100.00
20145;BME280;10233;50.814;6.590;2023-05-29T03:06:41;100729.16;;;13.08;100.00
20145;BME280;10233;50.814;6.590;2023-05-29T03:07:41;100728.53;;;13.19;100.00
20145;BME280;10233;50.814;6.590;2023-05-29T03:08:42;100728.72;;;13.18;100.00
20145;BME280;10233;50.814;6.590;2023-05-29T03:09:45;100725.88;;;13.19;100.00
20145;BME280;10233;50.814;6.590;2023-05-29T03:10:45;100725.66;;;13.14;100.00
20145;BME280;10233;50.814;6.590;2023-05-29T03:11:49;100723.38;;;13.11;100.00
20145;BME280;10233;50.814;6.590;2023-05-29T03:12:50;100727.50;;;13.14;100.00
20145;BME280;10233;50.814;6.590;2023-05-29T03:13:51;100726.88;;;13.05;100.00
20145;BME280;10233;50.814;6.590;2023-05-29T03:14:52;100721.97;;;13.02;100.00
20145;BME280;10233;50.814;6.590;2023-05-29T03:15:52;100730.19;;;13.01;100.00
20145;BME280;10233;50.814;6.590;2023-05-29T03:16:57;100728.97;;;13.03;100.00
20145;BME280;10233;50.814;6.590;2023-05-29T03:17:59;100731.19;;;13.06;100.00
20145;BME280;10233;50.814;6.590;2023-05-29T03:19:04;100731.00;;;13.01;100.00
20145;BME280;10233;50.814;6.590;2023-05-29T03:20:05;100734.91;;;12.99;100.00
20145;BME280;10233;50.814;6.590;2023-05-29T03:21:06;100736.34;;;13.01;100.00
20145;BME280;10233;50.814;6.590;2023-05-29T03:22:08;100738.00;;;13.02;100.00
20145;BME280;10233;50.814;6.590;2023-05-29T03:23:10;100733.88;;;13.06;100.00
20145;BME280;10233;50.814;6.590;2023-05-29T03:24:11;100731.00;;;13.01;100.00
20145;BME280;10233;50.814;6.590;2023-05-29T03:25:14;100733.84;;;13.00;100.00
20145;BME280;10233;50.814;6.590;2023-05-29T03:26:17;100733.84;;;12.93;100.00
20145;BME280;10233;50.814;6.590;2023-05-29T03:27:19;100742.88;;;12.92;100.00
20145;BME280;10233;50.814;6.590;2023-05-29T03:28:24;100738.78;;;12.96;100.00
20145;BME280;10233;50.814;6.590;2023-05-29T03:29:26;100739.59;;;12.90;100.00
20145;BME280;10233;50.814;6.590;2023-05-29T03:30:30;100745.31;;;12.87;100.00
20145;BME280;10233;50.814;6.590;2023-05-29T03:31:32;100748.63;;;12.89;100.00
20145;BME280;10233;50.814;6.590;2023-05-29T03:32:33;100741.66;;;12.88;100.00
20145;BME280;10233;50.814;6.590;2023-05-29T03:33:35;100748.41;;;12.84;100.00
20145;BME280;10233;50.814;6.590;2023-05-29T03:34:57;100745.75;;;12.84;100.00
20145;BME280;10233;50.814;6.590;2023-05-29T03:35:58;100744.69;;;12.72;100.00
20145;BME280;10233;50.814;6.590;2023-05-29T03:36:59;100747.56;;;12.77;100.00
20145;BME280;10233;50.814;6.590;2023-05-29T03:38:01;100741.41;;;12.70;100.00
20145;BME280;10233;50.814;6.590;2023-05-29T03:39:02;100749.63;;;12.69;100.00
20145;BME280;10233;50.814;6.590;2023-05-29T03:40:03;100744.09;;;12.70;100.00
20145;BME280;10233;50.814;6.590;2023-05-29T03:41:05;100743.47;;;12.75;100.00
20145;BME280;10233;50.814;6.590;2023-05-29T03:42:06;100747.81;;;12.76;100.00
20145;BME280;10233;50.814;6.590;2023-05-29T03:43:07;100751.03;;;12.65;100.00
20145;BME280;10233;50.814;6.590;2023-05-29T03:44:07;100746.56;;;12.72;100.00
20145;BME280;10233;50.814;6.590;2023-05-29T03:45:09;100741.22;;;12.65;100.00
20145;BME280;10233;50.814;6.590;2023-05-29T03:46:14;100744.28;;;12.69;100.00
20145;BME280;10233;50.814;6.590;2023-05-29T03:47:15;100741.00;;;12.67;100.00
20145;BME280;10233;50.814;6.590;2023-05-29T03:48:15;100742.84;;;12.66;100.00
20145;BME280;10233;50.814;6.590;2023-05-29T03:49:19;100749.00;;;12.60;100.00
20145;BME280;10233;50.814;6.590;2023-05-29T03:50:20;100747.38;;;12.66;100.00
20145;BME280;10233;50.814;6.590;2023-05-29T03:51:21;100750.03;;;12.72;100.00
20145;BME280;10233;50.814;6.590;2023-05-29T03:52:23;100751.47;;;12.81;100.00
20145;BME280;10233;50.814;6.590;2023-05-29T03:53:23;100753.94;;;12.83;100.00
20145;BME280;10233;50.814;6.590;2023-05-29T03:54:24;100754.56;;;12.78;100.00
20145;BME280;10233;50.814;6.590;2023-05-29T03:55:26;100758.06;;;12.85;100.00
20145;BME280;10233;50.814;6.590;2023-05-29T03:56:27;100753.34;;;12.81;100.00
20145;BME280;10233;50.814;6.590;2023-05-29T03:57:28;100749.44;;;12.83;100.00
20145;BME280;10233;50.814;6.590;2023-05-29T03:58:28;100750.25;;;12.77;100.00
20145;BME280;10233;50.814;6.590;2023-05-29T03:59:29;100756.41;;;12.78;100.00
20145;BME280;10233;50.814;6.590;2023-05-29T04:00:31;100763.78;;;12.69;100.00
20145;BME280;10233;50.814;6.590;2023-05-29T04:01:36;100751.91;;;12.72;100.00
20145;BME280;10233;50.814;6.590;2023-05-29T04:02:39;100757.44;;;12.70;100.00
20145;BME280;10233;50.814;6.590;2023-05-29T04:03:40;100758.47;;;12.69;100.00
20145;BME280;10233;50.814;6.590;2023-05-29T04:04:41;100757.22;;;12.72;100.00
20145;BME280;10233;50.814;6.590;2023-05-29T04:05:41;100752.09;;;12.70;100.00
20145;BME280;10233;50.814;6.590;2023-05-29T04:06:43;100760.31;;;12.75;100.00
20145;BME280;10233;50.814;6.590;2023-05-29T04:07:43;100755.19;;;12.80;100.00
20145;BME280;10233;50.814;6.590;2023-05-29T04:08:44;100757.22;;;12.72;100.00
20145;BME280;10233;50.814;6.590;2023-05-29T04:09:44;100764.00;;;12.74;100.00
20145;BME280;10233;50.814;6.590;2023-05-29T04:10:45;100765.66;;;12.75;100.00
20145;BME280;10233;50.814;6.590;2023-05-29T04:11:46;100769.56;;;12.79;100.00
20145;BME280;10233;50.814;6.590;2023-05-29T04:12:47;100772.81;;;12.81;100.00
20145;BME280;10233;50.814;6.590;2023-05-29T04:13:49;100774.25;;;12.77;100.00
20145;BME280;10233;50.814;6.590;2023-05-29T04:14:50;100770.38;;;12.86;100.00
20145;BME280;10233;50.814;6.590;2023-05-29T04:15:50;100774.91;;;12.86;100.00
20145;BME280;10233;50.814;6.590;2023-05-29T04:16:53;100775.91;;;12.85;100.00
20145;BME280;10233;50.814;6.590;2023-05-29T04:17:54;100774.91;;;12.86;100.00
20145;BME280;10233;50.814;6.590;2023-05-29T04:18:55;100773.44;;;12.90;100.00
20145;BME280;10233;50.814;6.590;2023-05-29T04:19:59;100782.50;;;12.95;100.00
20145;BME280;10233;50.814;6.590;2023-05-29T04:21:02;100777.16;;;12.89;100.00
20145;BME280;10233;50.814;6.590;2023-05-29T04:22:03;100777.81;;;12.97;100.00
20145;BME280;10233;50.814;6.590;2023-05-29T04:23:05;100783.53;;;12.88;100.00
20145;BME280;10233;50.814;6.590;2023-05-29T04:24:06;100789.69;;;12.95;100.00
20145;BME280;10233;50.814;6.590;2023-05-29T04:25:07;100784.19;;;13.03;100.00
20145;BME280;10233;50.814;6.590;2023-05-29T04:26:08;100787.69;;;13.03;100.00
20145;BME280;10233;50.814;6.590;2023-05-29T04:27:10;100787.69;;;13.03;100.00
20145;BME280;10233;50.814;6.590;2023-05-29T04:28:14;100787.69;;;12.97;100.00
20145;BME280;10233;50.814;6.590;2023-05-29T04:29:15;100790.50;;;12.95;100.00
20145;BME280;10233;50.814;6.590;2023-05-29T04:30:19;100787.00;;;12.95;100.00
20145;BME280;10233;50.814;6.590;2023-05-29T04:31:25;100791.75;;;12.93;100.00
20145;BME280;10233;50.814;6.590;2023-05-29T04:32:27;100791.13;;;12.91;100.00
20145;BME280;10233;50.814;6.590;2023-05-29T04:33:27;100794.22;;;12.94;100.00
20145;BME280;10233;50.814;6.590;2023-05-29T04:34:30;100796.47;;;12.91;100.00
20145;BME280;10233;50.814;6.590;2023-05-29T04:35:31;100787.69;;;12.97;100.00
20145;BME280;10233;50.814;6.590;2023-05-29T04:36:35;100791.38;;;13.02;100.00
20145;BME280;10233;50.814;6.590;2023-05-29T04:37:41;100792.59;;;13.00;100.00
20145;BME280;10233;50.814;6.590;2023-05-29T04:38:44;100798.97;;;13.05;100.00
20145;BME280;10233;50.814;6.590;2023-05-29T04:39:46;100798.97;;;13.05;100.00
20145;BME280;10233;50.814;6.590;2023-05-29T04:40:53;100800.84;;;13.05;100.00
20145;BME280;10233;50.814;6.590;2023-05-29T04:41:58;100796.94;;;13.07;100.00
20145;BME280;10233;50.814;6.590;2023-05-29T04:43:02;100800.41;;;13.08;100.00
20145;BME280;10233;50.814;6.590;2023-05-29T04:44:12;100807.41;;;13.15;100.00
20145;BME280;10233;50.814;6.590;2023-05-29T04:45:20;100803.09;;;13.14;100.00
20145;BME280;10233;50.814;6.590;2023-05-29T04:46:21;100799.00;;;13.18;100.00
20145;BME280;10233;50.814;6.590;2023-05-29T04:47:21;100802.69;;;13.17;100.00
20145;BME280;10233;50.814;6.590;2023-05-29T04:48:22;100793.84;;;13.17;100.00
20145;BME280;10233;50.814;6.590;2023-05-29T04:49:24;100799.19;;;13.30;100.00
20145;BME280;10233;50.814;6.590;2023-05-29T04:50:24;100799.19;;;13.30;100.00
20145;BME280;10233;50.814;6.590;2023-05-29T04:51:27;100804.75;;;13.35;100.00
20145;BME280;10233;50.814;6.590;2023-05-29T04:52:28;100802.47;;;13.25;100.00
20145;BME280;10233;50.814;6.590;2023-05-29T04:53:30;100794.88;;;13.35;100.00
20145;BME280;10233;50.814;6.590;2023-05-29T04:54:32;100804.13;;;13.33;100.00
20145;BME280;10233;50.814;6.590;2023-05-29T04:55:34;100800.63;;;13.45;100.00
20145;BME280;10233;50.814;6.590;2023-05-29T04:56:35;100794.66;;;13.43;100.00
20145;BME280;10233;50.814;6.590;2023-05-29T04:57:37;100799.19;;;13.36;100.00
20145;BME280;10233;50.814;6.590;2023-05-29T04:58:41;100797.13;;;13.38;100.00
20145;BME280;10233;50.814;6.590;2023-05-29T04:59:42;100804.75;;;13.35;100.00
20145;BME280;10233;50.814;6.590;2023-05-29T05:00:42;100806.19;;;13.44;100.00
20145;BME280;10233;50.814;6.590;2023-05-29T05:01:44;100807.41;;;13.54;100.00
20145;BME280;10233;50.814;6.590;2023-05-29T05:02:45;100809.88;;;13.62;100.00
20145;BME280;10233;50.814;6.590;2023-05-29T05:03:47;100809.03;;;13.55;100.00
20145;BME280;10233;50.814;6.590;2023-05-29T05:04:48;100805.16;;;13.51;100.00
20145;BME280;10233;50.814;6.590;2023-05-29T05:05:49;100814.19;;;13.50;100.00
20145;BME280;10233;50.814;6.590;2023-05-29T05:06:50;100807.19;;;13.49;100.00
20145;BME280;10233;50.814;6.590;2023-05-29T05:07:51;100812.13;;;13.52;100.00
20145;BME280;10233;50.814;6.590;2023-05-29T05:08:53;100814.38;;;13.55;100.00
20145;BME280;10233;50.814;6.590;2023-05-29T05:09:54;100813.97;;;13.58;100.00
20145;BME280;10233;50.814;6.590;2023-05-29T05:11:00;100812.94;;;13.59;100.00
20145;BME280;10233;50.814;6.590;2023-05-29T05:12:01;100814.56;;;13.67;100.00
20145;BME280;10233;50.814;6.590;2023-05-29T05:13:02;100814.38;;;13.75;100.00
20145;BME280;10233;50.814;6.590;2023-05-29T05:14:03;100812.72;;;13.74;100.00
20145;BME280;10233;50.814;6.590;2023-05-29T05:15:05;100811.91;;;13.73;100.00
20145;BME280;10233;50.814;6.590;2023-05-29T05:16:07;100818.47;;;13.84;100.00
20145;BME280;10233;50.814;6.590;2023-05-29T05:17:07;100819.91;;;13.86;100.00
20145;BME280;10233;50.814;6.590;2023-05-29T05:18:08;100824.22;;;13.94;100.00
20145;BME280;10233;50.814;6.590;2023-05-29T05:19:11;100822.56;;;13.93;100.00
20145;BME280;10233;50.814;6.590;2023-05-29T05:20:14;100823.81;;;13.90;100.00
20145;BME280;10233;50.814;6.590;2023-05-29T05:21:15;100824.59;;;13.97;100.00
20145;BME280;10233;50.814;6.590;2023-05-29T05:22:16;100828.53;;;13.95;100.00
20145;BME280;10233;50.814;6.590;2023-05-29T05:23:16;100827.66;;;14.07;100.00
20145;BME280;10233;50.814;6.590;2023-05-29T05:24:17;100828.50;;;14.08;100.00
20145;BME280;10233;50.814;6.590;2023-05-29T05:25:17;100827.66;;;14.20;100.00
20145;BME280;10233;50.814;6.590;2023-05-29T05:26:19;100827.66;;;14.20;100.00
20145;BME280;10233;50.814;6.590;2023-05-29T05:27:20;100829.91;;;14.23;100.00